Time;durP1;ratioP1;P1;durP2;ratioP2;P2;SDS_P1;SDS_P2;PMS_P1;PMS_P2;Temp;Humidity;BMP_temperature;BMP_pressure;BME280_temperature;BME280_humidity;BME280_pressure;Samples;Min_cycle;Max_cycle;Signal;HPM_P1;HPM_P2
2021/08/16 00:01:35;;;;;;;6.67;2.90;;;19.60;63.20;;;;;;5073943;28;20177;-85
2021/08/16 00:04:00;;;;;;;5.43;2.77;;;19.60;63.50;;;;;;5072387;28;20193;-86
2021/08/16 00:06:26;;;;;;;10.13;3.63;;;19.50;63.50;;;;;;5072506;28;20180;-85
2021/08/16 00:08:52;;;;;;;9.33;2.37;;;19.40;63.80;;;;;;5073365;28;20196;-85
2021/08/16 00:11:18;;;;;;;13.83;2.80;;;19.30;64.10;;;;;;5073073;28;20161;-86
2021/08/16 00:13:44;;;;;;;7.28;2.33;;;19.30;64.40;;;;;;5063539;28;20443;-85
2021/08/16 00:16:09;;;;;;;8.50;3.43;;;19.40;64.70;;;;;;5060639;28;20177;-87
2021/08/16 00:18:35;;;;;;;12.47;3.77;;;19.50;64.40;;;;;;5059526;28;20181;-86
2021/08/16 00:21:02;;;;;;;17.08;3.58;;;19.40;64.50;;;;;;5060418;28;20285;-86
2021/08/16 00:23:29;;;;;;;5.32;2.47;;;19.50;64.70;;;;;;5058370;28;20292;-86
2021/08/16 00:25:55;;;;;;;6.75;2.58;;;19.50;64.50;;;;;;5059645;28;20197;-86
2021/08/16 00:28:21;;;;;;;4.82;2.38;;;19.50;64.40;;;;;;5057697;28;20176;-86
2021/08/16 00:30:47;;;;;;;5.63;2.43;;;19.40;64.50;;;;;;5058649;28;20173;-86
2021/08/16 00:33:12;;;;;;;9.97;2.70;;;19.40;64.70;;;;;;5058684;28;20973;-86
2021/08/16 00:35:39;;;;;;;9.17;3.00;;;19.40;64.90;;;;;;5057259;28;20423;-86
2021/08/16 00:38:05;;;;;;;6.32;2.63;;;19.40;64.90;;;;;;5058058;28;20177;-85
2021/08/16 00:40:31;;;;;;;8.13;3.60;;;19.40;65.00;;;;;;5057549;28;20181;-86
2021/08/16 00:42:57;;;;;;;11.13;3.20;;;19.40;65.00;;;;;;5057036;28;20224;-85
2021/08/16 00:45:25;;;;;;;7.57;2.53;;;19.40;65.00;;;;;;5054688;28;20204;-87
2021/08/16 00:47:50;;;;;;;6.13;2.75;;;19.70;65.10;;;;;;5053242;28;20216;-87
2021/08/16 00:50:16;;;;;;;16.90;4.60;;;19.60;64.60;;;;;;5055139;28;20177;-86
2021/08/16 00:52:43;;;;;;;8.93;2.57;;;19.70;64.50;;;;;;5056238;28;20786;-86
2021/08/16 00:55:10;;;;;;;10.48;3.13;;;19.70;64.70;;;;;;5058395;28;20181;-86
2021/08/16 00:57:37;;;;;;;7.93;2.85;;;19.80;64.40;;;;;;5057449;28;20181;-86
2021/08/16 01:00:05;;;;;;;5.95;2.60;;;19.70;64.50;;;;;;5056921;28;20256;-86
2021/08/16 01:02:32;;;;;;;9.48;3.30;;;19.60;64.80;;;;;;5059121;28;20205;-86
2021/08/16 01:05:00;;;;;;;12.00;2.83;;;19.50;65.20;;;;;;5056426;28;20200;-86
2021/08/16 01:07:25;;;;;;;5.85;3.20;;;19.50;65.30;;;;;;5067867;28;20272;-85
2021/08/16 01:09:51;;;;;;;7.63;2.80;;;19.50;65.50;;;;;;5062378;28;20641;-86
2021/08/16 01:12:17;;;;;;;13.17;3.00;;;19.50;65.60;;;;;;5059518;28;20212;-86
2021/08/16 01:14:42;;;;;;;10.17;2.90;;;19.60;65.90;;;;;;5059793;28;20296;-87
2021/08/16 01:17:09;;;;;;;8.43;3.80;;;19.50;65.80;;;;;;5057534;28;20203;-86
2021/08/16 01:19:34;;;;;;;8.23;2.92;;;19.50;65.80;;;;;;5057943;28;20193;-86
2021/08/16 01:22:00;;;;;;;6.20;3.13;;;19.50;65.90;;;;;;5056496;28;20296;-86
2021/08/16 01:24:26;;;;;;;8.90;2.93;;;19.50;66.00;;;;;;5056676;28;20272;-86
2021/08/16 01:26:52;;;;;;;5.17;3.50;;;19.60;66.10;;;;;;5058901;28;20178;-86
2021/08/16 01:29:19;;;;;;;5.90;2.33;;;19.50;66.10;;;;;;5057918;28;20166;-87
2021/08/16 01:31:45;;;;;;;16.70;4.15;;;19.70;66.10;;;;;;5056680;28;20174;-86
2021/08/16 01:34:11;;;;;;;7.67;3.57;;;19.70;65.80;;;;;;5060457;28;20191;-87
2021/08/16 01:36:38;;;;;;;11.85;3.80;;;19.70;65.70;;;;;;5060254;28;20411;-86
2021/08/16 01:39:04;;;;;;;8.88;3.08;;;19.60;65.80;;;;;;5061851;28;20246;-87
2021/08/16 01:41:30;;;;;;;10.60;4.18;;;19.70;66.00;;;;;;5059842;28;20177;-86
2021/08/16 01:43:56;;;;;;;6.70;2.70;;;19.80;66.10;;;;;;5060967;28;20641;-86
2021/08/16 01:46:21;;;;;;;12.43;3.33;;;19.70;66.00;;;;;;5062228;28;20493;-86
2021/08/16 01:48:47;;;;;;;11.47;3.07;;;19.60;66.20;;;;;;5060183;28;20641;-86
2021/08/16 01:51:12;;;;;;;12.07;3.57;;;19.70;66.20;;;;;;5061692;28;20214;-86
2021/08/16 01:53:38;;;;;;;11.57;3.27;;;19.80;66.40;;;;;;5060130;28;20663;-87
2021/08/16 01:56:04;;;;;;;8.23;3.00;;;19.60;66.40;;;;;;5059222;28;20181;-87
2021/08/16 01:58:30;;;;;;;6.97;2.30;;;19.60;66.60;;;;;;5060412;28;20225;-87
2021/08/16 02:00:55;;;;;;;9.40;3.10;;;19.50;66.90;;;;;;5059810;28;20195;-86
2021/08/16 02:03:21;;;;;;;5.03;2.97;;;19.60;67.60;;;;;;5061543;28;20200;-86
2021/08/16 02:05:47;;;;;;;12.13;3.50;;;19.70;67.10;;;;;;5071399;28;20221;-86
2021/08/16 02:08:12;;;;;;;5.93;3.87;;;19.60;66.80;;;;;;5063125;28;20204;-86
2021/08/16 02:10:39;;;;;;;13.07;3.27;;;19.60;67.10;;;;;;5062467;28;20188;-86
2021/08/16 02:13:05;;;;;;;11.40;3.00;;;19.70;67.00;;;;;;5059609;28;20205;-86
2021/08/16 02:15:30;;;;;;;6.37;2.63;;;19.50;67.10;;;;;;5061081;28;20212;-86
2021/08/16 02:17:56;;;;;;;6.70;2.50;;;19.50;67.40;;;;;;5058298;28;21017;-86
2021/08/16 02:20:22;;;;;;;8.07;2.60;;;19.60;67.50;;;;;;5058826;28;20269;-86
2021/08/16 02:22:48;;;;;;;11.40;3.93;;;19.60;67.40;;;;;;5059452;28;20201;-86
2021/08/16 02:25:14;;;;;;;12.77;2.77;;;19.60;67.60;;;;;;5058255;28;20335;-87
2021/08/16 02:27:47;;;;;;;9.87;3.20;;;19.70;67.80;;;;;;5061477;28;20535;-85
2021/08/16 02:30:15;;;;;;;16.42;3.85;;;19.60;67.60;;;;;;5061483;28;20169;-86
2021/08/16 02:32:42;;;;;;;9.32;2.80;;;19.70;67.80;;;;;;5063090;28;20229;-85
2021/08/16 02:35:08;;;;;;;11.52;3.15;;;19.60;67.70;;;;;;5061907;28;20184;-86
2021/08/16 02:37:34;;;;;;;6.63;4.40;;;19.60;67.90;;;;;;5053274;28;20691;-86
2021/08/16 02:39:59;;;;;;;10.73;3.37;;;19.50;68.10;;;;;;5044465;28;20182;-86
2021/08/16 02:42:26;;;;;;;17.60;3.80;;;19.50;68.20;;;;;;5042808;28;20209;-86
2021/08/16 02:44:52;;;;;;;7.43;3.50;;;19.60;68.30;;;;;;5042706;28;20692;-85
2021/08/16 02:47:21;;;;;;;10.90;3.70;;;19.60;68.30;;;;;;5043766;28;20247;-85
2021/08/16 02:49:49;;;;;;;6.65;3.60;;;19.70;68.30;;;;;;5053973;28;20423;-84
2021/08/16 02:52:15;;;;;;;13.18;4.32;;;19.70;68.10;;;;;;5050058;28;20205;-85
2021/08/16 02:54:42;;;;;;;7.57;3.63;;;19.60;68.10;;;;;;5041762;28;20213;-85
2021/08/16 02:57:08;;;;;;;11.52;3.70;;;19.70;68.30;;;;;;5038302;28;20473;-85
2021/08/16 02:59:33;;;;;;;9.73;4.47;;;19.70;68.50;;;;;;5040627;28;20192;-85
2021/08/16 03:01:59;;;;;;;11.00;3.30;;;19.60;68.40;;;;;;5051661;28;20455;-86
2021/08/16 03:04:25;;;;;;;4.43;2.57;;;19.60;68.60;;;;;;5043545;28;20278;-86
2021/08/16 03:06:50;;;;;;;6.73;2.70;;;19.50;68.80;;;;;;5042290;28;20197;-86
2021/08/16 03:09:16;;;;;;;7.40;3.33;;;19.50;68.90;;;;;;5041638;28;20174;-85
2021/08/16 03:11:42;;;;;;;3.73;2.23;;;19.70;69.00;;;;;;5040020;28;20178;-86
2021/08/16 03:14:08;;;;;;;10.50;3.33;;;19.50;68.70;;;;;;5039774;28;20235;-85
2021/08/16 03:16:33;;;;;;;8.30;3.00;;;19.50;69.00;;;;;;5039638;28;20193;-85
2021/08/16 03:18:59;;;;;;;15.00;2.90;;;19.40;69.20;;;;;;5039213;28;20275;-85
2021/08/16 03:21:25;;;;;;;10.13;2.77;;;19.30;69.50;;;;;;5036972;28;20174;-86
2021/08/16 03:23:51;;;;;;;9.03;2.70;;;19.40;69.80;;;;;;5038449;28;20197;-86
2021/08/16 03:26:17;;;;;;;5.13;2.70;;;19.40;69.60;;;;;;5037760;28;20448;-86
2021/08/16 03:28:42;;;;;;;9.60;2.73;;;19.50;69.40;;;;;;5038272;28;20224;-85
2021/08/16 03:31:08;;;;;;;10.00;2.60;;;19.50;69.40;;;;;;5038732;28;20413;-86
2021/08/16 03:33:33;;;;;;;8.37;3.13;;;19.40;69.40;;;;;;5037002;28;20248;-85
2021/08/16 03:35:59;;;;;;;11.17;3.07;;;19.40;69.60;;;;;;5037573;28;20245;-86
2021/08/16 03:38:25;;;;;;;15.53;5.00;;;19.40;69.70;;;;;;5053382;28;20177;-86
2021/08/16 03:40:51;;;;;;;10.60;2.90;;;19.30;69.70;;;;;;5056813;28;20582;-86
2021/08/16 03:43:17;;;;;;;8.50;3.17;;;19.40;69.70;;;;;;5059714;28;20207;-86
2021/08/16 03:45:43;;;;;;;6.87;2.80;;;19.40;69.70;;;;;;5061968;28;20224;-86
2021/08/16 03:48:09;;;;;;;7.75;2.90;;;19.50;69.50;;;;;;5067771;28;20211;-86
2021/08/16 03:50:35;;;;;;;7.77;3.73;;;19.50;69.50;;;;;;5070034;28;20182;-85
2021/08/16 03:53:00;;;;;;;5.30;2.50;;;19.40;69.70;;;;;;5066565;28;20432;-86
2021/08/16 03:55:26;;;;;;;6.23;3.20;;;19.30;69.90;;;;;;5065143;28;20212;-85
2021/08/16 03:57:52;;;;;;;7.17;2.80;;;19.50;69.90;;;;;;5068421;28;20261;-84
2021/08/16 04:00:18;;;;;;;7.10;3.23;;;19.40;69.80;;;;;;5072144;28;20236;-85
2021/08/16 04:02:46;;;;;;;12.38;3.40;;;19.30;70.10;;;;;;5066938;28;20227;-85
2021/08/16 04:05:12;;;;;;;6.20;3.45;;;19.40;70.40;;;;;;5063871;28;20680;-86
2021/08/16 04:07:38;;;;;;;9.40;3.10;;;19.30;70.40;;;;;;5062675;28;20180;-85
2021/08/16 04:10:04;;;;;;;14.40;5.20;;;19.40;70.50;;;;;;5061362;28;20406;-85
2021/08/16 04:12:30;;;;;;;30.08;6.18;;;19.40;70.40;;;;;;5060220;28;20199;-85
2021/08/16 04:14:56;;;;;;;7.83;3.90;;;19.30;70.40;;;;;;5062743;28;20193;-85
2021/08/16 04:17:21;;;;;;;9.43;2.83;;;19.30;70.50;;;;;;5060129;28;20193;-85
2021/08/16 04:19:47;;;;;;;3.73;2.30;;;19.40;70.40;;;;;;5059970;28;20296;-85
2021/08/16 04:22:13;;;;;;;8.90;3.37;;;19.40;70.40;;;;;;5057908;28;20201;-85
2021/08/16 04:24:39;;;;;;;17.53;3.43;;;19.30;70.50;;;;;;5057352;28;20213;-85
2021/08/16 04:27:05;;;;;;;7.82;3.35;;;19.30;70.70;;;;;;5057638;28;20169;-85
2021/08/16 04:29:30;;;;;;;9.73;3.70;;;19.40;70.70;;;;;;5059096;28;20201;-86
2021/08/16 04:31:56;;;;;;;8.63;2.33;;;19.40;70.60;;;;;;5055713;28;20207;-86
2021/08/16 04:34:23;;;;;;;9.17;3.17;;;19.40;70.60;;;;;;5056913;28;20177;-86
2021/08/16 04:36:48;;;;;;;13.52;3.65;;;19.40;70.70;;;;;;5055349;28;20434;-86
2021/08/16 04:39:14;;;;;;;6.80;3.50;;;19.40;70.80;;;;;;5037815;28;20198;-86
2021/08/16 04:41:40;;;;;;;11.73;3.40;;;19.30;70.90;;;;;;5036742;28;20185;-86
2021/08/16 04:44:05;;;;;;;9.00;4.57;;;19.40;71.00;;;;;;5037449;28;20228;-86
2021/08/16 04:46:31;;;;;;;9.60;3.00;;;19.40;71.00;;;;;;5036962;28;20205;-86
2021/08/16 04:49:06;;;;;;;6.63;3.20;;;19.40;71.10;;;;;;5035702;28;20663;-84
2021/08/16 04:51:32;;;;;;;9.35;3.33;;;19.40;70.90;;;;;;5035414;28;20273;-84
2021/08/16 04:53:57;;;;;;;22.10;5.00;;;19.60;70.70;;;;;;5035415;28;20229;-85
2021/08/16 04:56:23;;;;;;;11.30;3.77;;;19.40;70.60;;;;;;5050654;28;20173;-84
2021/08/16 04:58:49;;;;;;;11.10;3.20;;;19.40;70.70;;;;;;5038491;28;20174;-85
2021/08/16 05:01:14;;;;;;;16.17;3.87;;;19.50;70.80;;;;;;5035351;28;20625;-86
2021/08/16 05:03:40;;;;;;;14.57;3.27;;;19.60;70.70;;;;;;5035572;28;20256;-85
2021/08/16 05:06:07;;;;;;;12.27;3.77;;;19.60;70.30;;;;;;5035499;28;20676;-84
2021/08/16 05:08:35;;;;;;;11.88;3.72;;;19.60;70.20;;;;;;5037773;28;20514;-86
2021/08/16 05:11:02;;;;;;;10.45;3.35;;;19.60;70.40;;;;;;5038467;28;20185;-85
2021/08/16 05:13:27;;;;;;;9.45;3.97;;;19.50;70.50;;;;;;5052614;28;20204;-85
2021/08/16 05:15:53;;;;;;;10.57;3.90;;;19.60;70.40;;;;;;5057951;28;20530;-86
2021/08/16 05:18:19;;;;;;;9.50;3.60;;;19.50;70.50;;;;;;5059384;28;20189;-86
2021/08/16 05:20:44;;;;;;;7.10;5.27;;;19.60;70.60;;;;;;5058585;28;20181;-85
2021/08/16 05:23:10;;;;;;;12.43;5.40;;;19.70;70.50;;;;;;5058939;28;20208;-85
2021/08/16 05:25:36;;;;;;;9.40;3.73;;;19.60;70.50;;;;;;5062079;28;20212;-85
2021/08/16 05:28:01;;;;;;;6.17;3.83;;;19.60;70.60;;;;;;5057735;28;20169;-84
2021/08/16 05:30:28;;;;;;;5.60;3.53;;;19.80;70.40;;;;;;5040107;28;20182;-84
2021/08/16 05:32:54;;;;;;;14.40;4.20;;;19.90;70.00;;;;;;5040523;28;20295;-84
2021/08/16 05:35:20;;;;;;;10.00;4.60;;;19.90;69.80;;;;;;5042172;28;20635;-84
2021/08/16 05:37:45;;;;;;;14.27;4.30;;;19.90;69.60;;;;;;5052248;28;20180;-85
2021/08/16 05:40:12;;;;;;;16.00;5.40;;;19.80;69.80;;;;;;5061612;28;20181;-85
2021/08/16 05:42:38;;;;;;;15.25;4.65;;;19.80;70.10;;;;;;5060695;28;20435;-86
2021/08/16 05:45:05;;;;;;;11.65;4.50;;;19.80;70.20;;;;;;5049332;28;20299;-85
2021/08/16 05:47:31;;;;;;;14.75;4.35;;;19.80;70.20;;;;;;5038295;28;20957;-86
2021/08/16 05:49:57;;;;;;;13.20;4.10;;;19.90;70.20;;;;;;5052511;28;20177;-85
2021/08/16 05:52:23;;;;;;;13.15;4.68;;;19.80;70.10;;;;;;5069837;28;20197;-86
2021/08/16 05:54:49;;;;;;;13.77;4.37;;;19.90;70.20;;;;;;5075443;28;20185;-86
2021/08/16 05:57:15;;;;;;;11.57;4.05;;;19.90;70.00;;;;;;5073745;28;20166;-86
2021/08/16 05:59:41;;;;;;;10.97;4.73;;;19.80;70.00;;;;;;5074386;28;20256;-85
2021/08/16 06:02:06;;;;;;;10.27;5.77;;;19.90;70.20;;;;;;5068758;28;20204;-84
2021/08/16 06:04:32;;;;;;;11.33;4.43;;;19.80;70.20;;;;;;5069629;28;20204;-85
2021/08/16 06:06:58;;;;;;;10.37;4.47;;;19.80;70.40;;;;;;5066755;28;20193;-86
2021/08/16 06:09:23;;;;;;;10.20;4.40;;;19.80;70.60;;;;;;5064520;28;20219;-85
2021/08/16 06:11:49;;;;;;;10.50;4.53;;;19.80;70.60;;;;;;5062314;28;20272;-85
2021/08/16 06:14:15;;;;;;;11.60;4.87;;;19.80;70.70;;;;;;5074018;28;20173;-85
2021/08/16 06:16:41;;;;;;;13.03;4.63;;;19.80;70.70;;;;;;5074055;28;20624;-85
2021/08/16 06:19:08;;;;;;;14.48;5.10;;;19.90;70.70;;;;;;5064108;28;20177;-86
2021/08/16 06:21:35;;;;;;;16.27;5.32;;;20.00;70.50;;;;;;5062146;28;20227;-85
2021/08/16 06:24:01;;;;;;;15.82;6.88;;;20.10;70.50;;;;;;5060986;28;20193;-84
2021/08/16 06:26:27;;;;;;;8.07;4.43;;;20.10;70.10;;;;;;5060740;28;20278;-84
2021/08/16 06:28:53;;;;;;;10.03;4.63;;;20.20;70.00;;;;;;5063116;28;20241;-84
2021/08/16 06:31:19;;;;;;;12.77;4.73;;;20.40;69.80;;;;;;5069559;28;20506;-86
2021/08/16 06:33:44;;;;;;;10.93;4.63;;;20.30;69.60;;;;;;5071394;28;20211;-84
2021/08/16 06:36:10;;;;;;;12.20;4.57;;;20.20;69.60;;;;;;5068033;28;20209;-85
2021/08/16 06:38:36;;;;;;;13.80;5.00;;;20.30;69.80;;;;;;5068266;28;20254;-85
2021/08/16 06:41:03;;;;;;;23.70;6.60;;;20.30;69.70;;;;;;5069097;28;20189;-85
2021/08/16 06:43:32;;;;;;;10.98;5.70;;;20.20;70.00;;;;;;5061760;28;20942;-85
2021/08/16 06:45:58;;;;;;;12.85;5.95;;;20.10;71.50;;;;;;5052075;28;20217;-85
2021/08/16 06:48:24;;;;;;;8.05;5.15;;;20.20;72.70;;;;;;5048490;28;20200;-85
2021/08/16 06:50:49;;;;;;;12.70;5.97;;;20.30;73.30;;;;;;5060658;28;20173;-85
2021/08/16 06:53:15;;;;;;;16.67;5.87;;;20.10;74.70;;;;;;5058502;28;20271;-85
2021/08/16 06:55:42;;;;;;;13.32;5.25;;;20.10;75.20;;;;;;5059137;28;20181;-86
2021/08/16 06:58:08;;;;;;;13.05;5.43;;;20.20;75.10;;;;;;5058954;28;20184;-85
2021/08/16 07:00:42;;;;;;;14.83;5.77;;;20.20;74.90;;;;;;5058788;28;20197;-85
2021/08/16 07:03:09;;;;;;;15.73;6.60;;;20.10;75.30;;;;;;5058312;28;20196;-85
2021/08/16 07:05:35;;;;;;;9.80;5.53;;;20.20;75.60;;;;;;5060630;28;20204;-86
2021/08/16 07:08:01;;;;;;;10.07;6.32;;;20.30;75.80;;;;;;5062063;28;20184;-86
2021/08/16 07:10:27;;;;;;;14.67;6.37;;;20.30;75.70;;;;;;5061842;28;20169;-86
2021/08/16 07:12:52;;;;;;;12.00;6.13;;;20.30;76.00;;;;;;5059799;28;20193;-85
2021/08/16 07:15:18;;;;;;;11.17;6.13;;;20.10;76.20;;;;;;5059906;28;20420;-85
2021/08/16 07:17:44;;;;;;;11.07;6.40;;;20.10;76.90;;;;;;5059376;28;20719;-85
2021/08/16 07:20:10;;;;;;;11.03;5.67;;;20.00;77.40;;;;;;5059352;28;20177;-85
2021/08/16 07:22:36;;;;;;;11.00;5.80;;;19.90;78.00;;;;;;5058173;28;20204;-85
2021/08/16 07:25:05;;;;;;;10.80;5.30;;;19.90;78.20;;;;;;5059063;28;20459;-87
2021/08/16 07:27:31;;;;;;;14.93;6.47;;;19.90;78.40;;;;;;5059448;28;20340;-86
2021/08/16 07:29:56;;;;;;;9.57;5.10;;;19.80;78.70;;;;;;5057563;28;20746;-86
2021/08/16 07:32:22;;;;;;;11.97;7.60;;;19.80;79.00;;;;;;5057141;28;20441;-87
2021/08/16 07:34:48;;;;;;;21.30;7.03;;;19.80;79.70;;;;;;5058032;28;20687;-87
2021/08/16 07:37:14;;;;;;;14.83;7.50;;;19.70;80.90;;;;;;5055193;28;20184;-88
2021/08/16 07:39:40;;;;;;;27.17;9.27;;;19.70;81.90;;;;;;5056675;28;20173;-88
2021/08/16 07:42:06;;;;;;;10.67;7.20;;;19.50;82.60;;;;;;5057312;28;20354;-87
2021/08/16 07:44:31;;;;;;;11.53;6.13;;;19.30;83.60;;;;;;5071066;28;20462;-89
2021/08/16 07:46:59;;;;;;;12.80;6.30;;;19.20;84.20;;;;;;5056443;28;20176;-88
2021/08/16 07:49:30;;;;;;;10.25;5.82;;;19.00;84.80;;;;;;5056851;28;20177;-88
2021/08/16 07:51:56;;;;;;;10.02;5.68;;;18.80;84.80;;;;;;5056468;28;20706;-88
2021/08/16 07:54:21;;;;;;;7.13;4.90;;;18.70;85.20;;;;;;5040186;28;20244;-88
2021/08/16 07:56:49;;;;;;;10.40;5.67;;;18.50;85.20;;;;;;5040929;28;20181;-88
2021/08/16 07:59:17;;;;;;;8.82;5.75;;;18.50;85.80;;;;;;5055887;28;20173;-88
2021/08/16 08:01:43;;;;;;;6.97;5.53;;;18.60;86.30;;;;;;5056085;28;20224;-93
2021/08/16 08:04:09;;;;;;;7.77;5.23;;;18.70;86.50;;;;;;5057714;28;20226;-94
2021/08/16 08:06:34;;;;;;;7.70;4.17;;;18.70;85.80;;;;;;5065700;28;20416;-94
2021/08/16 08:09:00;;;;;;;5.43;4.90;;;18.80;85.20;;;;;;5058668;28;20239;-93
2021/08/16 08:11:26;;;;;;;6.87;5.00;;;18.90;84.60;;;;;;5059610;28;20204;-93
2021/08/16 08:13:52;;;;;;;6.63;5.07;;;19.00;84.10;;;;;;5057867;28;20201;-93
2021/08/16 08:16:18;;;;;;;5.57;4.93;;;19.20;84.10;;;;;;5058584;28;20532;-93
2021/08/16 08:18:43;;;;;;;9.07;4.77;;;19.30;83.80;;;;;;5057008;28;20646;-93
2021/08/16 08:21:09;;;;;;;6.07;4.73;;;19.40;83.20;;;;;;5056929;28;20703;-93
2021/08/16 08:23:35;;;;;;;6.60;5.60;;;19.40;83.10;;;;;;5056620;28;20282;-93
2021/08/16 08:26:01;;;;;;;6.67;4.73;;;19.50;82.50;;;;;;5056340;28;20462;-93
2021/08/16 08:28:28;;;;;;;7.87;4.33;;;19.40;81.70;;;;;;5057642;28;20420;-93
2021/08/16 08:30:54;;;;;;;8.13;4.28;;;19.30;80.90;;;;;;5061710;28;20177;-93
2021/08/16 08:33:20;;;;;;;6.57;4.30;;;19.40;80.70;;;;;;5066135;28;20576;-93
2021/08/16 08:35:47;;;;;;;10.73;4.60;;;19.40;80.70;;;;;;5066301;28;20219;-93
2021/08/16 08:38:14;;;;;;;12.75;5.13;;;19.50;80.50;;;;;;5069050;28;20177;-93
2021/08/16 08:40:41;;;;;;;6.78;4.25;;;19.50;80.20;;;;;;5071336;28;20192;-93
2021/08/16 08:43:14;;;;;;;10.68;4.72;;;19.60;80.10;;;;;;5066913;28;20209;-93
2021/08/16 08:45:42;;;;;;;8.23;4.38;;;19.70;79.90;;;;;;5066042;28;20234;-93
2021/08/16 08:48:08;;;;;;;6.45;4.03;;;19.80;79.90;;;;;;5062862;28;20174;-93
2021/08/16 08:50:35;;;;;;;10.95;5.50;;;19.90;78.70;;;;;;5067082;28;20181;-93
2021/08/16 08:53:02;;;;;;;8.80;4.45;;;20.00;77.50;;;;;;5064267;28;20192;-93
2021/08/16 08:55:30;;;;;;;6.43;4.68;;;20.20;77.10;;;;;;5064990;28;20185;-93
2021/08/16 08:58:00;;;;;;;13.80;5.28;;;20.20;75.60;;;;;;5064084;28;20215;-93
2021/08/16 09:00:25;;;;;;;9.05;5.20;;;20.30;75.70;;;;;;5063994;28;20188;-93
2021/08/16 09:02:56;;;;;;;13.43;4.47;;;20.40;74.50;;;;;;5065581;28;20201;-93
2021/08/16 09:05:22;;;;;;;9.70;4.50;;;20.40;72.80;;;;;;5065673;28;20209;-93
2021/08/16 09:07:48;;;;;;;7.50;4.20;;;20.30;72.70;;;;;;5064214;28;20188;-93
2021/08/16 09:10:15;;;;;;;7.03;4.77;;;20.00;72.90;;;;;;5064327;28;20412;-93
2021/08/16 09:12:42;;;;;;;14.00;4.53;;;19.50;74.00;;;;;;5065762;28;20224;-93
2021/08/16 09:15:22;;;;;;;6.90;4.40;;;19.20;75.30;;;;;;5065348;28;20688;-93
2021/08/16 09:17:49;;;;;;;9.93;4.25;;;18.80;76.80;;;;;;5065340;28;20195;-93
2021/08/16 09:20:28;;;;;;;6.25;4.50;;;18.70;78.00;;;;;;5065635;28;20185;-93
2021/08/16 09:23:06;;;;;;;5.95;3.88;;;18.50;77.30;;;;;;5064343;28;20197;-94
2021/08/16 09:25:38;;;;;;;4.20;3.67;;;18.50;77.20;;;;;;5065220;28;20663;-94
2021/08/16 09:28:05;;;;;;;6.32;4.60;;;18.50;76.40;;;;;;5066455;28;20298;-94
2021/08/16 09:30:37;;;;;;;6.85;3.60;;;18.60;76.20;;;;;;5069399;28;20188;-93
2021/08/16 09:33:16;;;;;;;7.78;4.30;;;18.70;76.10;;;;;;5076820;28;20189;-94
2021/08/16 09:35:55;;;;;;;9.10;4.30;;;18.90;76.00;;;;;;5070214;28;20180;-93
2021/08/16 09:38:36;;;;;;;8.85;3.97;;;19.20;74.50;;;;;;5069451;28;20189;-93
2021/08/16 09:41:02;;;;;;;10.40;5.32;;;19.40;73.90;;;;;;5074892;28;20177;-93
2021/08/16 09:43:28;;;;;;;10.53;5.30;;;19.50;72.70;;;;;;5064625;28;20216;-93
2021/08/16 09:45:54;;;;;;;13.13;5.53;;;19.50;69.60;;;;;;5062336;28;20531;-93
2021/08/16 09:48:22;;;;;;;11.40;7.30;;;19.70;67.40;;;;;;5060489;28;20173;-93
2021/08/16 09:50:51;;;;;;;15.63;7.43;;;19.70;65.30;;;;;;5058593;28;20412;-94
2021/08/16 09:53:25;;;;;;;11.55;7.15;;;19.60;64.80;;;;;;5060347;28;20197;-94
2021/08/16 09:56:02;;;;;;;12.43;7.93;;;19.70;64.70;;;;;;5062731;28;20173;-94
2021/08/16 09:58:29;;;;;;;14.55;7.93;;;19.80;62.80;;;;;;5064200;28;20168;-93
2021/08/16 10:00:56;;;;;;;20.23;8.82;;;19.80;62.30;;;;;;5060325;28;20648;-92
2021/08/16 10:03:22;;;;;;;16.10;9.27;;;19.90;62.20;;;;;;5060313;28;20197;-93
2021/08/16 10:05:50;;;;;;;17.10;10.05;;;20.20;59.80;;;;;;5061683;28;20201;-93
2021/08/16 10:08:24;;;;;;;18.13;10.57;;;20.30;59.20;;;;;;5060734;28;20173;-93
2021/08/16 10:10:53;;;;;;;18.10;11.20;;;20.20;58.50;;;;;;5060395;28;20173;-92
2021/08/16 10:13:23;;;;;;;21.45;11.23;;;20.30;57.70;;;;;;5062041;28;20330;-93
2021/08/16 10:16:01;;;;;;;18.50;12.38;;;20.30;57.30;;;;;;5060255;28;20193;-93
2021/08/16 10:18:38;;;;;;;15.80;10.23;;;20.00;57.50;;;;;;5059803;28;20193;-93
2021/08/16 10:21:05;;;;;;;21.33;12.98;;;20.00;58.40;;;;;;5060444;28;20173;-93
2021/08/16 10:23:31;;;;;;;19.00;11.60;;;20.20;58.80;;;;;;5059817;28;20208;-92
2021/08/16 10:25:58;;;;;;;20.70;11.37;;;20.50;57.70;;;;;;5061204;28;20200;-92
2021/08/16 10:28:24;;;;;;;20.98;11.45;;;20.60;56.60;;;;;;5059109;28;20169;-92
2021/08/16 10:30:50;;;;;;;18.73;11.90;;;20.60;56.20;;;;;;5058813;28;20188;-92
2021/08/16 10:33:17;;;;;;;22.33;11.90;;;20.60;56.20;;;;;;5060212;28;20193;-92
2021/08/16 10:35:43;;;;;;;20.48;12.63;;;20.80;56.90;;;;;;5062190;28;20415;-92
2021/08/16 10:38:11;;;;;;;23.47;13.57;;;20.50;56.80;;;;;;5072340;28;20215;-93
2021/08/16 10:40:46;;;;;;;28.63;13.95;;;20.10;58.20;;;;;;5066682;28;20408;-92
2021/08/16 10:43:15;;;;;;;23.58;13.65;;;19.90;59.60;;;;;;5066391;28;20256;-92
2021/08/16 10:45:49;;;;;;;25.55;14.68;;;19.80;60.30;;;;;;5064108;28;20227;-92
2021/08/16 10:48:29;;;;;;;21.20;13.38;;;19.80;60.10;;;;;;5064004;28;20780;-92
2021/08/16 10:51:08;;;;;;;26.85;14.52;;;19.60;60.00;;;;;;5067734;28;20272;-92
2021/08/16 10:53:51;;;;;;;21.65;12.65;;;19.70;60.20;;;;;;5067533;28;20264;-92
2021/08/16 10:56:20;;;;;;;23.42;14.52;;;19.90;60.30;;;;;;5063965;28;20177;-92
2021/08/16 10:58:46;;;;;;;26.48;12.85;;;20.10;59.60;;;;;;5060145;28;20370;-93
2021/08/16 11:01:29;;;;;;;16.95;12.20;;;20.40;59.10;;;;;;5058056;28;20275;-92
2021/08/16 11:04:00;;;;;;;21.13;12.07;;;20.80;58.10;;;;;;5059811;28;20205;-93
2021/08/16 11:06:27;;;;;;;20.52;12.77;;;20.80;56.80;;;;;;5058916;28;21048;-93
2021/08/16 11:09:00;;;;;;;26.27;13.77;;;20.80;56.50;;;;;;5058770;28;20181;-93
2021/08/16 11:11:29;;;;;;;21.38;13.10;;;20.50;55.30;;;;;;5059506;28;20168;-92
2021/08/16 11:14:09;;;;;;;23.95;12.95;;;20.30;55.70;;;;;;5060241;28;20204;-93
2021/08/16 11:16:50;;;;;;;23.27;14.32;;;20.10;56.80;;;;;;5060672;28;20204;-92
2021/08/16 11:19:16;;;;;;;25.48;12.73;;;20.20;57.80;;;;;;5060980;28;20184;-92
2021/08/16 11:22:04;;;;;;;24.15;13.77;;;20.20;58.00;;;;;;5058781;28;20177;-92
2021/08/16 11:24:39;;;;;;;21.58;12.50;;;20.00;58.00;;;;;;5061279;28;20653;-92
2021/08/16 11:27:06;;;;;;;25.88;13.65;;;19.90;58.70;;;;;;5062720;28;20262;-92
2021/08/16 11:29:33;;;;;;;23.02;13.45;;;20.10;58.90;;;;;;5059992;28;20192;-92
2021/08/16 11:32:02;;;;;;;25.13;13.85;;;19.90;58.40;;;;;;5061880;28;20284;-92
2021/08/16 11:34:31;;;;;;;25.55;14.45;;;19.90;58.50;;;;;;5060463;28;20197;-93
2021/08/16 11:36:59;;;;;;;23.95;12.43;;;19.70;58.50;;;;;;5073397;28;20257;-93
2021/08/16 11:39:33;;;;;;;27.42;13.73;;;19.70;58.60;;;;;;5062220;28;20510;-93
2021/08/16 11:42:02;;;;;;;17.60;11.65;;;19.80;58.80;;;;;;5057702;28;20245;-92
2021/08/16 11:44:29;;;;;;;23.77;13.95;;;19.90;58.50;;;;;;5056750;28;20659;-93
2021/08/16 11:47:00;;;;;;;19.92;12.15;;;20.00;58.40;;;;;;5056666;28;20174;-92
2021/08/16 11:49:35;;;;;;;19.30;13.15;;;19.90;58.50;;;;;;5056756;28;20223;-93
2021/08/16 11:52:01;;;;;;;19.50;12.82;;;19.80;59.00;;;;;;5057519;28;20664;-93
2021/08/16 11:54:32;;;;;;;19.73;11.95;;;19.80;59.40;;;;;;5056569;28;20177;-93
2021/08/16 11:57:00;;;;;;;20.90;12.77;;;20.00;58.70;;;;;;5056374;28;20173;-93
2021/08/16 11:59:27;;;;;;;25.85;13.30;;;20.30;58.60;;;;;;5056908;28;20177;-93
2021/08/16 12:01:55;;;;;;;22.40;13.87;;;20.60;58.60;;;;;;5059430;28;20236;-92
2021/08/16 12:04:22;;;;;;;20.27;12.32;;;20.90;57.60;;;;;;5063888;28;20455;-93
2021/08/16 12:06:50;;;;;;;24.40;13.90;;;21.20;56.80;;;;;;5061121;28;20181;-92
2021/08/16 12:09:15;;;;;;;21.37;12.30;;;21.30;56.20;;;;;;5058569;28;20412;-93
2021/08/16 12:11:42;;;;;;;22.17;13.37;;;21.40;56.00;;;;;;5059485;28;20775;-93
2021/08/16 12:14:08;;;;;;;21.10;11.80;;;21.00;56.10;;;;;;5059536;28;20415;-93
2021/08/16 12:16:35;;;;;;;16.10;10.40;;;20.70;57.20;;;;;;5058065;28;20188;-93
2021/08/16 12:19:03;;;;;;;21.05;10.82;;;20.40;56.80;;;;;;5058464;28;20177;-93
2021/08/16 12:21:30;;;;;;;20.58;12.88;;;20.30;57.60;;;;;;5066586;28;20196;-93
2021/08/16 12:24:03;;;;;;;20.25;12.70;;;20.30;58.60;;;;;;5073980;28;20230;-93
2021/08/16 12:26:37;;;;;;;28.90;13.02;;;20.30;58.80;;;;;;5073040;28;20651;-93
2021/08/16 12:29:15;;;;;;;20.48;11.10;;;20.40;58.60;;;;;;5070150;28;20169;-92
2021/08/16 12:31:42;;;;;;;30.83;13.45;;;20.60;58.30;;;;;;5069654;28;20153;-93
2021/08/16 12:34:08;;;;;;;24.80;12.48;;;20.50;58.30;;;;;;5077355;28;20169;-94
2021/08/16 12:36:36;;;;;;;33.03;10.87;;;20.40;58.10;;;;;;5071179;28;20200;-93
2021/08/16 12:39:13;;;;;;;16.95;10.30;;;20.40;58.50;;;;;;5056026;28;20658;-93